Time;durP1;ratioP1;P1;durP2;ratioP2;P2;SDS_P1;SDS_P2;PMS_P1;PMS_P2;Temp;Humidity;BMP_temperature;BMP_pressure;BME280_temperature;BME280_humidity;BME280_pressure;Samples;Min_cycle;Max_cycle;Signal;HPM_P1;HPM_P2
2021/08/14 00:00:18;;;;;;;9.90;5.35;;;;;;;-148.56;100.00;61375.16;4987542;28;20038;-28
2021/08/14 00:03:42;;;;;;;6.38;4.80;;;;;;;-148.56;100.00;61375.16;4994394;28;20482;-31
2021/08/14 00:07:06;;;;;;;7.35;4.90;;;;;;;-148.56;100.00;61375.16;4992983;28;20038;-30
2021/08/14 00:10:30;;;;;;;12.65;5.70;;;;;;;-148.56;100.00;61375.16;4997683;28;20029;-29
2021/08/14 00:13:54;;;;;;;7.05;4.85;;;;;;;-148.56;100.00;61375.16;4989058;28;20036;-31
2021/08/14 00:17:19;;;;;;;7.70;5.05;;;;;;;-148.56;100.00;61375.16;4984344;28;20107;-29
2021/08/14 00:20:43;;;;;;;7.07;5.07;;;;;;;-148.56;100.00;61375.16;4987960;28;20030;-29
2021/08/14 00:24:07;;;;;;;8.07;5.30;;;;;;;-148.56;100.00;61375.16;4988884;28;20088;-34
2021/08/14 00:27:31;;;;;;;7.10;5.00;;;;;;;-148.56;100.00;61375.16;4996682;28;20025;-29
2021/08/14 00:30:55;;;;;;;7.82;4.95;;;;;;;-148.56;100.00;61375.16;4993293;28;20563;-30
2021/08/14 00:34:19;;;;;;;8.30;5.10;;;;;;;-148.56;100.00;61375.16;4995586;28;20037;-30
2021/08/14 00:37:43;;;;;;;10.20;5.65;;;;;;;-148.56;100.00;61375.16;4991516;28;20119;-30
2021/08/14 00:41:07;;;;;;;11.02;5.35;;;;;;;-148.56;100.00;61375.16;4984833;28;20572;-29
2021/08/14 00:44:34;;;;;;;9.10;5.45;;;;;;;-148.56;100.00;61375.16;4978263;28;23162;-29
2021/08/14 00:48:00;;;;;;;7.15;5.25;;;;;;;-148.56;100.00;61375.16;5004972;28;20507;-30
2021/08/14 00:51:24;;;;;;;11.13;4.95;;;;;;;-148.56;100.00;61375.16;4984579;28;20038;-32
2021/08/14 00:54:48;;;;;;;7.90;5.13;;;;;;;-148.56;100.00;61375.16;4998029;28;20025;-30
2021/08/14 00:58:12;;;;;;;6.72;5.20;;;;;;;-148.56;100.00;61375.16;4991246;28;20037;-29
2021/08/14 01:01:36;;;;;;;8.80;5.30;;;;;;;-148.56;100.00;61375.16;4985066;28;20705;-28
2021/08/14 01:05:01;;;;;;;18.20;5.93;;;;;;;-148.56;100.00;61375.16;4989432;28;20045;-32
2021/08/14 01:08:24;;;;;;;8.13;5.93;;;;;;;-148.56;100.00;61375.16;4989234;28;20042;-32
2021/08/14 01:11:48;;;;;;;11.32;5.28;;;;;;;-148.56;100.00;61375.16;4996381;28;20098;-30
2021/08/14 01:15:12;;;;;;;8.23;5.55;;;;;;;-148.56;100.00;61375.16;4963261;28;20068;-30
2021/08/14 01:18:39;;;;;;;7.63;5.88;;;;;;;-148.56;100.00;61375.16;4994771;28;20052;-30
2021/08/14 01:22:07;;;;;;;14.25;6.00;;;;;;;-148.56;100.00;61375.16;4989434;28;20033;-29
2021/08/14 01:25:32;;;;;;;6.32;5.38;;;;;;;-148.56;100.00;61375.16;4991228;28;20153;-30
2021/08/14 01:28:56;;;;;;;9.60;5.78;;;;;;;-148.56;100.00;61375.16;4990308;28;20119;-31
2021/08/14 01:32:20;;;;;;;9.23;5.72;;;;;;;-148.56;100.00;61375.16;4992475;28;20401;-29
2021/08/14 01:35:45;;;;;;;7.22;5.15;;;;;;;-148.56;100.00;61375.16;5000019;28;20087;-30
2021/08/14 01:39:12;;;;;;;9.98;5.85;;;;;;;-148.56;100.00;61375.16;4985448;28;20033;-29
2021/08/14 01:42:36;;;;;;;8.65;5.57;;;;;;;-148.56;100.00;61375.16;4993014;28;20029;-32
2021/08/14 01:46:00;;;;;;;6.13;5.18;;;;;;;-148.56;100.00;61375.16;4991404;28;20387;-32
2021/08/14 01:49:24;;;;;;;5.65;5.05;;;;;;;-148.56;100.00;61375.16;4995233;28;20038;-32
2021/08/14 01:52:49;;;;;;;6.30;5.13;;;;;;;-148.56;100.00;61375.16;4989314;28;20038;-29
2021/08/14 01:56:13;;;;;;;9.55;6.15;;;;;;;-148.56;100.00;61375.16;4987722;28;20112;-28
2021/08/14 01:59:37;;;;;;;7.70;5.53;;;;;;;-148.56;100.00;61375.16;4994535;28;20076;-31
2021/08/14 02:03:01;;;;;;;9.05;6.50;;;;;;;-148.56;100.00;61375.16;4984388;28;20034;-30
2021/08/14 02:06:26;;;;;;;10.15;5.40;;;;;;;-148.56;100.00;61375.16;4995942;28;20022;-31
2021/08/14 02:09:49;;;;;;;9.57;5.60;;;;;;;-148.56;100.00;61375.16;4991384;28;20700;-30
2021/08/14 02:13:13;;;;;;;9.40;5.72;;;;;;;-148.56;100.00;61375.16;4990451;28;20033;-30
2021/08/14 02:16:37;;;;;;;10.82;5.00;;;;;;;-148.56;100.00;61375.16;4988916;28;20101;-29
2021/08/14 02:20:01;;;;;;;8.43;5.50;;;;;;;-148.56;100.00;61375.16;4987731;28;20659;-31
2021/08/14 02:23:25;;;;;;;7.63;5.40;;;;;;;-148.56;100.00;61375.16;4987423;28;20385;-30
2021/08/14 02:26:49;;;;;;;6.53;5.20;;;;;;;-148.56;100.00;61375.16;4987924;28;20061;-29
2021/08/14 02:30:13;;;;;;;6.55;5.45;;;;;;;-148.56;100.00;61375.16;4989736;28;20083;-28
2021/08/14 02:33:37;;;;;;;9.02;5.30;;;;;;;-148.56;100.00;61375.16;4980779;28;20033;-30
2021/08/14 02:37:03;;;;;;;12.23;5.28;;;;;;;-148.56;100.00;61375.16;4987869;28;20034;-29
2021/08/14 02:40:26;;;;;;;8.02;5.30;;;;;;;-148.56;100.00;61375.16;4994431;28;20186;-30
2021/08/14 02:43:51;;;;;;;6.65;5.45;;;;;;;-148.56;100.00;61375.16;4991367;28;20033;-29
2021/08/14 02:47:14;;;;;;;12.93;5.88;;;;;;;-148.56;100.00;61375.16;4992694;28;20025;-29
2021/08/14 02:50:39;;;;;;;7.85;5.15;;;;;;;-148.56;100.00;61375.16;4988538;28;20492;-28
2021/08/14 02:54:02;;;;;;;8.88;5.35;;;;;;;-148.56;100.00;61375.16;4979924;28;20038;-31
2021/08/14 02:57:26;;;;;;;5.93;4.88;;;;;;;-148.56;100.00;61375.16;4988846;28;20598;-31
2021/08/14 03:00:50;;;;;;;10.00;5.97;;;;;;;-148.56;100.00;61375.16;4994523;28;20034;-29
2021/08/14 03:04:14;;;;;;;8.82;5.40;;;;;;;-148.56;100.00;61375.16;5001983;28;20061;-29
2021/08/14 03:07:38;;;;;;;8.05;5.40;;;;;;;-148.56;100.00;61375.16;4991315;28;20036;-30
2021/08/14 03:11:02;;;;;;;10.45;5.20;;;;;;;-148.56;100.00;61375.16;4995319;28;20056;-31
2021/08/14 03:14:26;;;;;;;7.93;5.50;;;;;;;-148.56;100.00;61375.16;4992839;28;20467;-29
2021/08/14 03:17:54;;;;;;;8.25;5.38;;;;;;;-148.56;100.00;61375.16;4988787;28;20042;-35
2021/08/14 03:21:17;;;;;;;11.40;5.47;;;;;;;-148.56;100.00;61375.16;4993265;28;20033;-29
2021/08/14 03:24:41;;;;;;;11.80;5.30;;;;;;;-148.56;100.00;61375.16;4988727;28;20427;-30
2021/08/14 03:28:05;;;;;;;12.85;5.90;;;;;;;-148.56;100.00;61375.16;4986606;28;20065;-29
2021/08/14 03:31:29;;;;;;;9.35;5.53;;;;;;;-148.56;100.00;61375.16;4989378;28;20033;-30
2021/08/14 03:34:53;;;;;;;7.93;5.22;;;;;;;-148.56;100.00;61375.16;4995555;28;20029;-30
2021/08/14 03:38:17;;;;;;;9.48;5.20;;;;;;;-148.56;100.00;61375.16;4994915;28;20060;-31
2021/08/14 03:41:41;;;;;;;7.18;5.45;;;;;;;-148.56;100.00;61375.16;4994373;28;20411;-29
2021/08/14 03:45:05;;;;;;;9.18;5.68;;;;;;;-148.56;100.00;61375.16;4996075;28;20025;-30
2021/08/14 03:48:29;;;;;;;9.93;5.63;;;;;;;-148.56;100.00;61375.16;4992042;28;20140;-30
2021/08/14 03:51:53;;;;;;;9.18;5.30;;;;;;;-148.56;100.00;61375.16;4997120;28;20366;-29
2021/08/14 03:55:19;;;;;;;7.20;5.38;;;;;;;-148.56;100.00;61375.16;4994420;28;20110;-29
2021/08/14 03:58:43;;;;;;;8.57;5.75;;;;;;;-148.56;100.00;61375.16;4996642;28;20049;-30
2021/08/14 04:02:07;;;;;;;8.88;5.07;;;;;;;-148.56;100.00;61375.16;4990521;28;20423;-29
2021/08/14 04:05:33;;;;;;;6.65;5.28;;;;;;;-148.56;100.00;61375.16;4998225;28;20056;-29
2021/08/14 04:08:56;;;;;;;8.63;5.95;;;;;;;-148.56;100.00;61375.16;4994436;28;20030;-29
2021/08/14 04:12:20;;;;;;;7.82;5.20;;;;;;;-148.56;100.00;61375.16;4991165;28;20575;-29
2021/08/14 04:15:44;;;;;;;6.68;5.20;;;;;;;-148.56;100.00;61375.16;4990311;28;20041;-30
2021/08/14 04:19:08;;;;;;;6.43;5.30;;;;;;;-148.56;100.00;61375.16;4994810;28;21987;-31
2021/08/14 04:22:32;;;;;;;9.43;5.65;;;;;;;-148.56;100.00;61375.16;4989711;28;20048;-28
2021/08/14 04:25:56;;;;;;;11.82;5.65;;;;;;;-148.56;100.00;61375.16;4980771;28;20033;-38
2021/08/14 04:29:20;;;;;;;9.07;5.72;;;;;;;-148.56;100.00;61375.16;4992471;28;20089;-32
2021/08/14 04:32:44;;;;;;;13.10;5.57;;;;;;;-148.56;100.00;61375.16;4991427;28;20495;-30
2021/08/14 04:36:08;;;;;;;9.52;5.43;;;;;;;-148.56;100.00;61375.16;4991029;28;20116;-33
2021/08/14 04:39:32;;;;;;;11.00;5.60;;;;;;;-148.56;100.00;61375.16;4988266;28;20480;-30
2021/08/14 04:42:56;;;;;;;15.55;5.50;;;;;;;-148.56;100.00;61375.16;4988448;28;20141;-30
2021/08/14 04:46:20;;;;;;;12.45;5.93;;;;;;;-148.56;100.00;61375.16;4991056;28;20116;-29
2021/08/14 04:49:44;;;;;;;10.45;5.43;;;;;;;-148.56;100.00;61375.16;4994196;28;20030;-30
2021/08/14 04:53:08;;;;;;;10.07;5.90;;;;;;;-148.56;100.00;61375.16;4991962;28;20238;-30
2021/08/14 04:56:32;;;;;;;7.75;5.05;;;;;;;-148.56;100.00;61375.16;4977391;28;20037;-30
2021/08/14 04:59:56;;;;;;;9.50;5.43;;;;;;;-148.56;100.00;61375.16;4984452;28;20508;-29
2021/08/14 05:03:20;;;;;;;6.97;5.28;;;;;;;-148.56;100.00;61375.16;4995968;28;20060;-30
2021/08/14 05:06:43;;;;;;;8.15;5.63;;;;;;;-148.56;100.00;61375.16;4983917;28;20069;-30
2021/08/14 05:10:07;;;;;;;11.40;5.68;;;;;;;-148.56;100.00;61375.16;4984140;28;20041;-30
2021/08/14 05:13:31;;;;;;;8.35;5.13;;;;;;;-148.56;100.00;61375.16;4987919;28;20033;-28
2021/08/14 05:16:55;;;;;;;8.35;5.00;;;;;;;-148.56;100.00;61375.16;4990779;28;20109;-31
2021/08/14 05:20:19;;;;;;;10.38;5.65;;;;;;;-148.56;100.00;61375.16;4992194;28;20501;-29
2021/08/14 05:23:43;;;;;;;7.82;5.38;;;;;;;-148.56;100.00;61375.16;4992835;28;20060;-28
2021/08/14 05:27:07;;;;;;;8.13;5.18;;;;;;;-148.56;100.00;61375.16;4991388;28;20030;-28
2021/08/14 05:30:31;;;;;;;9.30;5.45;;;;;;;-148.56;100.00;61375.16;4997853;28;20022;-30
2021/08/14 05:34:02;;;;;;;9.40;5.53;;;;;;;-148.56;100.00;61375.16;5009209;28;20086;-30
2021/08/14 05:37:25;;;;;;;7.97;4.97;;;;;;;-148.56;100.00;61375.16;4989518;28;20057;-32
2021/08/14 05:40:49;;;;;;;6.63;5.32;;;;;;;-148.56;100.00;61375.16;4990483;28;20026;-31
2021/08/14 05:44:13;;;;;;;8.52;5.18;;;;;;;-148.56;100.00;61375.16;4994250;28;20038;-29
2021/08/14 05:47:37;;;;;;;6.22;5.20;;;;;;;-148.56;100.00;61375.16;4992350;28;20091;-30
2021/08/14 05:51:01;;;;;;;12.05;5.30;;;;;;;-148.56;100.00;61375.16;4989631;28;20212;-28
2021/08/14 05:54:25;;;;;;;7.32;5.32;;;;;;;-148.56;100.00;61375.16;4989598;28;20108;-29
2021/08/14 05:57:49;;;;;;;10.32;5.22;;;;;;;-148.56;100.00;61375.16;4991512;28;20037;-31
2021/08/14 06:01:13;;;;;;;8.23;5.25;;;;;;;-148.56;100.00;61375.16;4991759;28;20550;-30
2021/08/14 06:04:37;;;;;;;7.18;5.30;;;;;;;-148.56;100.00;61375.16;4990416;28;20040;-31
2021/08/14 06:08:01;;;;;;;8.25;5.28;;;;;;;-148.56;100.00;61375.16;4989599;28;20026;-29
2021/08/14 06:11:25;;;;;;;9.10;5.60;;;;;;;-148.56;100.00;61375.16;4993391;28;20033;-29
2021/08/14 06:14:49;;;;;;;7.68;5.65;;;;;;;-148.56;100.00;61375.16;4993867;28;20034;-28
2021/08/14 06:18:13;;;;;;;6.90;4.95;;;;;;;-148.56;100.00;61375.16;4985728;28;20040;-30
2021/08/14 06:21:37;;;;;;;7.13;5.55;;;;;;;-148.56;100.00;61375.16;4988822;28;20655;-29
2021/08/14 06:25:02;;;;;;;7.05;5.40;;;;;;;-148.56;100.00;61375.16;4989095;28;20308;-28
2021/08/14 06:28:26;;;;;;;10.18;5.70;;;;;;;-148.56;100.00;61375.16;4989996;28;20037;-29
2021/08/14 06:31:49;;;;;;;11.27;5.40;;;;;;;-148.56;100.00;61375.16;4990316;28;20673;-29
2021/08/14 06:35:13;;;;;;;10.93;5.65;;;;;;;-148.56;100.00;61375.16;4996698;28;20117;-30
2021/08/14 06:38:38;;;;;;;12.15;5.50;;;;;;;-148.56;100.00;61375.16;4988933;28;20025;-29
2021/08/14 06:42:02;;;;;;;9.32;5.68;;;;;;;-148.56;100.00;61375.16;4992029;28;20034;-30
2021/08/14 06:45:26;;;;;;;8.70;5.43;;;;;;;-148.56;100.00;61375.16;4991936;28;20057;-31
2021/08/14 06:48:50;;;;;;;8.27;5.45;;;;;;;-148.56;100.00;61375.16;4986398;28;20034;-27
2021/08/14 06:52:14;;;;;;;9.80;5.80;;;;;;;-148.56;100.00;61375.16;4983290;28;20030;-28
2021/08/14 06:55:37;;;;;;;11.10;6.18;;;;;;;-148.56;100.00;61375.16;4984700;28;21785;-27
2021/08/14 06:59:01;;;;;;;15.80;6.28;;;;;;;-148.56;100.00;61375.16;4985818;28;20065;-29
2021/08/14 07:02:25;;;;;;;10.25;6.45;;;;;;;-148.56;100.00;61375.16;4991354;28;20022;-31
2021/08/14 07:05:49;;;;;;;9.50;5.93;;;;;;;-148.56;100.00;61375.16;4980815;28;20030;-30
2021/08/14 07:09:13;;;;;;;8.73;6.00;;;;;;;-148.56;100.00;61375.16;4992667;28;20026;-31
2021/08/14 07:12:37;;;;;;;9.10;6.05;;;;;;;-148.56;100.00;61375.16;4992718;28;20560;-30
2021/08/14 07:16:01;;;;;;;10.88;6.32;;;;;;;-148.56;100.00;61375.16;4991396;28;20272;-32
2021/08/14 07:19:25;;;;;;;7.60;5.85;;;;;;;-148.56;100.00;61375.16;4994434;28;20113;-33
2021/08/14 07:22:48;;;;;;;11.98;6.05;;;;;;;-148.56;100.00;61375.16;4995045;28;20455;-31
2021/08/14 07:26:12;;;;;;;11.27;6.07;;;;;;;-148.56;100.00;61375.16;4989243;28;20137;-33
2021/08/14 07:29:36;;;;;;;13.27;5.72;;;;;;;-148.56;100.00;61375.16;4986160;28;20025;-30
2021/08/14 07:33:00;;;;;;;9.23;6.03;;;;;;;-148.56;100.00;61375.16;4992676;28;20056;-30
2021/08/14 07:36:24;;;;;;;9.82;5.53;;;;;;;-148.56;100.00;61375.16;4984326;28;20037;-30
2021/08/14 07:39:48;;;;;;;11.32;5.50;;;;;;;-148.56;100.00;61375.16;4994221;28;20044;-32
2021/08/14 07:43:12;;;;;;;10.55;5.90;;;;;;;-148.56;100.00;61375.16;4973358;28;20037;-30
2021/08/14 07:46:36;;;;;;;11.00;6.00;;;;;;;-148.56;100.00;61375.16;4993433;28;20030;-31
2021/08/14 07:50:00;;;;;;;12.68;6.20;;;;;;;-148.56;100.00;61375.16;4992689;28;20030;-33
2021/08/14 07:53:23;;;;;;;10.32;6.32;;;;;;;-148.56;100.00;61375.16;4989533;28;20186;-32
2021/08/14 07:56:47;;;;;;;10.48;5.72;;;;;;;-148.56;100.00;61375.16;4990772;28;20232;-30
2021/08/14 08:00:13;;;;;;;10.35;6.10;;;;;;;-148.56;100.00;61375.16;4990704;28;20687;-30
2021/08/14 08:03:37;;;;;;;15.68;6.05;;;;;;;-148.56;100.00;61375.16;4992235;28;20404;-29
2021/08/14 08:07:01;;;;;;;9.73;5.85;;;;;;;-148.56;100.00;61375.16;4989633;28;20137;-30
2021/08/14 08:10:25;;;;;;;8.25;5.78;;;;;;;-148.56;100.00;61375.16;4988128;28;20436;-30
2021/08/14 08:13:48;;;;;;;7.63;5.47;;;;;;;-148.56;100.00;61375.16;4991286;28;20465;-31
2021/08/14 08:17:12;;;;;;;10.30;5.88;;;;;;;-148.56;100.00;61375.16;4991430;28;21065;-34
2021/08/14 08:20:36;;;;;;;8.23;6.20;;;;;;;-148.56;100.00;61375.16;4994709;28;20034;-32
2021/08/14 08:24:00;;;;;;;8.05;5.70;;;;;;;-148.56;100.00;61375.16;4985661;28;20030;-32
2021/08/14 08:27:24;;;;;;;9.02;5.60;;;;;;;-148.56;100.00;61375.16;4992540;28;20041;-30
2021/08/14 08:30:48;;;;;;;14.82;6.18;;;;;;;-148.56;100.00;61375.16;4989835;28;20096;-33
2021/08/14 08:34:12;;;;;;;9.80;5.75;;;;;;;-148.56;100.00;61375.16;4993122;28;20040;-30
2021/08/14 08:37:36;;;;;;;9.93;5.85;;;;;;;-148.56;100.00;61375.16;4986564;28;20034;-29
2021/08/14 08:41:00;;;;;;;14.23;5.95;;;;;;;-148.56;100.00;61375.16;4989315;28;20034;-30
2021/08/14 08:44:24;;;;;;;10.85;5.90;;;;;;;-148.56;100.00;61375.16;4986975;28;20040;-30
2021/08/14 08:47:49;;;;;;;7.78;5.75;;;;;;;-148.56;100.00;61375.16;4988628;28;20831;-31
2021/08/14 08:51:13;;;;;;;11.82;5.78;;;;;;;-148.56;100.00;61375.16;4991291;28;20054;-33
2021/08/14 08:54:37;;;;;;;8.05;4.95;;;;;;;-148.56;100.00;61375.16;4987952;28;20032;-30
2021/08/14 08:58:01;;;;;;;6.72;5.10;;;;;;;-148.56;100.00;61375.16;4989791;28;20021;-30
2021/08/14 09:01:25;;;;;;;7.93;5.68;;;;;;;-148.56;100.00;61375.16;4985356;28;20081;-31
2021/08/14 09:05:02;;;;;;;9.98;5.22;;;;;;;-148.56;100.00;61375.16;4985215;28;20088;-31
2021/08/14 09:08:26;;;;;;;10.95;5.00;;;;;;;-148.56;100.00;61375.16;4986547;28;20066;-31
2021/08/14 09:12:04;;;;;;;10.10;5.53;;;;;;;-148.56;100.00;61375.16;4992918;28;20037;-30
2021/08/14 09:15:31;;;;;;;11.10;5.25;;;;;;;-148.56;100.00;61375.16;4989178;28;20680;-29
2021/08/14 09:18:59;;;;;;;11.23;5.32;;;;;;;-148.56;100.00;61375.16;4988970;28;20139;-31
2021/08/14 09:22:36;;;;;;;8.15;5.30;;;;;;;-148.56;100.00;61375.16;4991851;28;20092;-30
2021/08/14 09:26:10;;;;;;;9.18;5.47;;;;;;;-148.56;100.00;61375.16;4988499;28;20104;-31
2021/08/14 09:29:35;;;;;;;11.40;4.90;;;;;;;-148.56;100.00;61375.16;4997955;28;20038;-33
2021/08/14 09:33:08;;;;;;;8.32;5.53;;;;;;;-148.56;100.00;61375.16;4986895;28;20512;-31
2021/08/14 09:36:32;;;;;;;14.07;5.22;;;;;;;-148.56;100.00;61375.16;4990065;28;20125;-31
2021/08/14 09:39:57;;;;;;;7.10;5.28;;;;;;;-148.56;100.00;61375.16;4989786;28;20386;-31
2021/08/14 09:43:33;;;;;;;13.07;5.13;;;;;;;-148.56;100.00;61375.16;4984182;28;20018;-31
2021/08/14 09:46:57;;;;;;;9.40;5.50;;;;;;;-148.56;100.00;61375.16;4993168;28;20029;-31
2021/08/14 09:50:34;;;;;;;8.52;5.03;;;;;;;-148.56;100.00;61375.16;4988493;28;20488;-32
2021/08/14 09:54:07;;;;;;;10.35;5.22;;;;;;;-148.56;100.00;61375.16;4987692;28;20481;-30
2021/08/14 09:57:31;;;;;;;11.52;4.40;;;;;;;-148.56;100.00;61375.16;4991082;28;21105;-33
2021/08/14 10:00:55;;;;;;;10.77;5.30;;;;;;;-148.56;100.00;61375.16;4990808;28;20042;-33
2021/08/14 10:04:19;;;;;;;8.13;5.43;;;;;;;-148.56;100.00;61375.16;5003469;28;20101;-31
2021/08/14 10:07:43;;;;;;;9.43;5.57;;;;;;;-148.56;100.00;61375.16;4994538;28;20026;-31
2021/08/14 10:11:11;;;;;;;19.10;5.13;;;;;;;-148.56;100.00;61375.16;4989404;28;20747;-31
2021/08/14 10:14:37;;;;;;;14.35;5.20;;;;;;;-148.56;100.00;61375.16;4984636;28;20073;-32
2021/08/14 10:18:01;;;;;;;13.48;5.47;;;;;;;-148.56;100.00;61375.16;4994860;28;20311;-32
2021/08/14 10:21:26;;;;;;;14.60;5.70;;;;;;;-148.56;100.00;61375.16;4984525;28;20660;-30
2021/08/14 10:24:51;;;;;;;9.90;5.70;;;;;;;-148.56;100.00;61375.16;4988688;28;20040;-31
2021/08/14 10:28:16;;;;;;;8.18;5.47;;;;;;;-148.56;100.00;61375.16;4993452;28;20021;-31
2021/08/14 10:31:45;;;;;;;11.98;5.70;;;;;;;-148.56;100.00;61375.16;4986917;28;20037;-31
2021/08/14 10:35:12;;;;;;;15.25;5.72;;;;;;;-148.56;100.00;61375.16;4994666;28;20080;-33
2021/08/14 10:38:37;;;;;;;7.97;5.50;;;;;;;-148.56;100.00;61375.16;4990969;28;20092;-32
2021/08/14 10:42:01;;;;;;;11.57;6.05;;;;;;;-148.56;100.00;61375.16;4989759;28;20389;-32
2021/08/14 10:45:35;;;;;;;10.45;5.65;;;;;;;-148.56;100.00;61375.16;4989630;28;20041;-32
2021/08/14 10:48:59;;;;;;;9.27;5.68;;;;;;;-148.56;100.00;61375.16;4987413;28;20032;-31
2021/08/14 10:52:42;;;;;;;9.88;5.63;;;;;;;-148.56;100.00;61375.16;4984484;28;20404;-32
2021/08/14 10:56:06;;;;;;;7.72;5.57;;;;;;;-148.56;100.00;61375.16;4986773;28;20452;-32
2021/08/14 10:59:38;;;;;;;16.02;6.10;;;;;;;-148.56;100.00;61375.16;4999427;28;20463;-31
2021/08/14 11:03:05;;;;;;;9.73;5.38;;;;;;;-148.56;100.00;61375.16;5003779;28;20041;-31
2021/08/14 11:06:29;;;;;;;9.65;5.38;;;;;;;-148.56;100.00;61375.16;5005396;28;20072;-31
2021/08/14 11:10:12;;;;;;;7.60;5.32;;;;;;;-148.56;100.00;61375.16;4998689;28;20128;-31
2021/08/14 11:13:37;;;;;;;6.75;5.28;;;;;;;-148.56;100.00;61375.16;5006388;28;20021;-30
2021/08/14 11:17:01;;;;;;;12.52;5.60;;;;;;;-148.56;100.00;61375.16;5004893;28;20034;-32
2021/08/14 11:20:39;;;;;;;8.05;5.30;;;;;;;-148.56;100.00;61375.16;5010431;28;20026;-28
2021/08/14 11:24:33;;;;;;;10.15;4.93;;;;;;;-148.56;100.00;61375.16;5003954;28;20036;-32
2021/08/14 11:28:00;;;;;;;11.25;5.25;;;;;;;-148.56;100.00;61375.16;5010524;28;20026;-30
2021/08/14 11:31:25;;;;;;;7.78;5.32;;;;;;;-148.56;100.00;61375.16;5006529;28;20051;-31
2021/08/14 11:34:57;;;;;;;8.82;5.32;;;;;;;-148.56;100.00;61375.16;5007202;28;20063;-31
2021/08/14 11:38:21;;;;;;;9.18;5.85;;;;;;;-148.56;100.00;61375.16;5012882;28;20029;-31
2021/08/14 11:41:52;;;;;;;9.35;5.13;;;;;;;-148.56;100.00;61375.16;5015806;28;20407;-32
2021/08/14 11:45:17;;;;;;;13.20;5.18;;;;;;;-148.56;100.00;61375.16;5015316;28;20040;-32
2021/08/14 11:48:45;;;;;;;7.22;5.03;;;;;;;-148.56;100.00;61375.16;5007145;28;20038;-30
2021/08/14 11:52:15;;;;;;;9.00;5.40;;;;;;;-148.56;100.00;61375.16;5007988;28;20113;-31
2021/08/14 11:55:39;;;;;;;8.43;5.50;;;;;;;-148.56;100.00;61375.16;5014466;28;20031;-31
2021/08/14 11:59:03;;;;;;;10.68;5.13;;;;;;;-148.56;100.00;61375.16;5011898;28;20483;-32
2021/08/14 12:02:27;;;;;;;10.88;5.00;;;;;;;-148.56;100.00;61375.16;5012851;28;20117;-31
2021/08/14 12:05:51;;;;;;;9.57;5.20;;;;;;;-148.56;100.00;61375.16;5018467;28;20404;-33
2021/08/14 12:09:25;;;;;;;7.82;4.65;;;;;;;-148.56;100.00;61375.16;5008956;28;20033;-31
2021/08/14 12:12:57;;;;;;;8.35;4.85;;;;;;;-148.56;100.00;61375.16;5018967;28;20532;-32
2021/08/14 12:16:21;;;;;;;8.50;4.73;;;;;;;-148.56;100.00;61375.16;5011947;28;20036;-31
2021/08/14 12:19:51;;;;;;;6.93;5.00;;;;;;;-148.56;100.00;61375.16;5016640;28;20033;-31
2021/08/14 12:23:18;;;;;;;8.18;4.63;;;;;;;-148.56;100.00;61375.16;5014306;28;20037;-32
2021/08/14 12:26:49;;;;;;;6.97;4.75;;;;;;;-148.56;100.00;61375.16;5019831;28;20120;-31
2021/08/14 12:30:14;;;;;;;7.32;4.55;;;;;;;-148.56;100.00;61375.16;5016688;28;20113;-31
2021/08/14 12:33:44;;;;;;;5.90;4.10;;;;;;;-148.56;100.00;61375.16;5013188;28;20061;-31
2021/08/14 12:37:08;;;;;;;7.25;4.95;;;;;;;-148.56;100.00;61375.16;5015669;28;20026;-31
2021/08/14 12:40:42;;;;;;;10.45;4.43;;;;;;;-148.56;100.00;61375.16;5015927;28;20527;-31
2021/08/14 12:44:12;;;;;;;6.15;4.60;;;;;;;-148.56;100.00;61375.16;5017414;28;20040;-31
2021/08/14 12:47:36;;;;;;;7.47;4.72;;;;;;;-148.56;100.00;61375.16;5008834;28;20116;-31
2021/08/14 12:51:09;;;;;;;5.90;4.50;;;;;;;-148.56;100.00;61375.16;5011281;28;20029;-31
2021/08/14 12:54:37;;;;;;;7.93;4.32;;;;;;;-148.56;100.00;61375.16;5011493;28;20095;-30
2021/08/14 12:58:14;;;;;;;6.10;4.40;;;;;;;-148.56;100.00;61375.16;5015908;28;20048;-31
2021/08/14 13:01:38;;;;;;;5.10;4.13;;;;;;;-148.56;100.00;61375.16;5014474;28;20021;-30
2021/08/14 13:05:02;;;;;;;14.38;4.50;;;;;;;-148.56;100.00;61375.16;5014256;28;20534;-32
2021/08/14 13:08:26;;;;;;;5.72;4.07;;;;;;;-148.56;100.00;61375.16;5016196;28;20459;-30
2021/08/14 13:11:50;;;;;;;6.00;3.85;;;;;;;-148.56;100.00;61375.16;5017435;28;20112;-31
2021/08/14 13:15:14;;;;;;;7.32;3.95;;;;;;;-148.56;100.00;61375.16;5004457;28;20026;-33
2021/08/14 13:18:38;;;;;;;5.60;3.97;;;;;;;-148.56;100.00;61375.16;5015576;28;20068;-31
2021/08/14 13:22:02;;;;;;;4.75;3.88;;;;;;;-148.56;100.00;61375.16;5016542;28;20121;-31
2021/08/14 13:25:26;;;;;;;5.57;3.90;;;;;;;-148.56;100.00;61375.16;5015187;28;20059;-31
2021/08/14 13:28:50;;;;;;;4.88;4.05;;;;;;;-148.56;100.00;61375.16;5017841;28;20064;-32
2021/08/14 13:32:13;;;;;;;3.92;3.50;;;;;;;-148.56;100.00;61375.16;5014563;28;20061;-30
2021/08/14 13:35:37;;;;;;;5.13;3.75;;;;;;;-148.56;100.00;61375.16;5013002;28;20458;-32
2021/08/14 13:39:01;;;;;;;5.43;3.90;;;;;;;-148.56;100.00;61375.16;5016438;28;20108;-33
2021/08/14 13:42:26;;;;;;;5.93;4.05;;;;;;;-148.56;100.00;61375.16;5013451;28;20038;-30
2021/08/14 13:45:50;;;;;;;5.03;3.58;;;;;;;-148.56;100.00;61375.16;5007675;28;20507;-32
2021/08/14 13:49:13;;;;;;;4.75;3.63;;;;;;;-148.56;100.00;61375.16;5010628;28;20045;-31
2021/08/14 13:52:37;;;;;;;4.53;3.55;;;;;;;-148.56;100.00;61375.16;5015578;28;20026;-30
2021/08/14 13:56:02;;;;;;;5.05;3.45;;;;;;;-148.56;100.00;61375.16;5013482;28;21461;-33
2021/08/14 13:59:25;;;;;;;4.55;3.53;;;;;;;-148.56;100.00;61375.16;5013456;28;20022;-31
2021/08/14 14:02:49;;;;;;;4.03;3.47;;;;;;;-148.56;100.00;61375.16;5011899;28;20032;-31
2021/08/14 14:06:13;;;;;;;4.13;3.47;;;;;;;-148.56;100.00;61375.16;5010068;28;20036;-32
2021/08/14 14:09:37;;;;;;;5.10;3.63;;;;;;;-148.56;100.00;61375.16;5014519;28;20412;-31
2021/08/14 14:13:02;;;;;;;5.15;3.35;;;;;;;-148.56;100.00;61375.16;5015573;28;20041;-32
2021/08/14 14:16:26;;;;;;;4.38;3.42;;;;;;;-148.56;100.00;61375.16;5011866;28;20025;-30
2021/08/14 14:19:50;;;;;;;4.30;3.13;;;;;;;-148.56;100.00;61375.16;5013600;28;20099;-32
2021/08/14 14:23:14;;;;;;;5.80;3.42;;;;;;;-148.56;100.00;61375.16;5014096;28;20051;-31
2021/08/14 14:26:38;;;;;;;4.15;3.15;;;;;;;-148.56;100.00;61375.16;5012294;28;20720;-32
2021/08/14 14:30:02;;;;;;;3.35;3.05;;;;;;;-148.56;100.00;61375.16;5016309;28;20112;-31
2021/08/14 14:33:26;;;;;;;5.07;3.30;;;;;;;-148.56;100.00;61375.16;5013494;28;20099;-30
2021/08/14 14:36:50;;;;;;;4.05;3.20;;;;;;;-148.56;100.00;61375.16;5010373;28;20028;-30
2021/08/14 14:40:13;;;;;;;4.18;3.10;;;;;;;-148.56;100.00;61375.16;5016100;28;20037;-32
2021/08/14 14:43:38;;;;;;;5.82;3.35;;;;;;;-148.56;100.00;61375.16;5016275;28;20488;-30
2021/08/14 14:47:02;;;;;;;3.95;3.00;;;;;;;-148.56;100.00;61375.16;5014415;28;20048;-33
2021/08/14 14:50:26;;;;;;;4.45;3.10;;;;;;;-148.56;100.00;61375.16;5004594;28;20749;-31
2021/08/14 14:53:50;;;;;;;4.32;3.20;;;;;;;-148.56;100.00;61375.16;5010989;28;20511;-31
2021/08/14 14:57:14;;;;;;;3.30;3.00;;;;;;;-148.56;100.00;61375.16;5008406;28;20586;-31
2021/08/14 15:00:37;;;;;;;3.65;3.10;;;;;;;-148.56;100.00;61375.16;4998603;28;20565;-31
2021/08/14 15:04:04;;;;;;;4.57;3.38;;;;;;;-148.56;100.00;61375.16;5001439;28;20522;-31
2021/08/14 15:07:28;;;;;;;4.68;3.08;;;;;;;-148.56;100.00;61375.16;5009243;28;20036;-30
2021/08/14 15:10:52;;;;;;;4.70;3.17;;;;;;;-148.56;100.00;61375.16;5008120;28;22006;-32
2021/08/14 15:14:16;;;;;;;4.40;3.30;;;;;;;-148.56;100.00;61375.16;5005119;28;20103;-32
2021/08/14 15:17:40;;;;;;;4.68;3.60;;;;;;;-148.56;100.00;61375.16;4998482;28;20037;-31
2021/08/14 15:21:05;;;;;;;4.53;3.63;;;;;;;-148.56;100.00;61375.16;5008963;28;20029;-31
2021/08/14 15:24:29;;;;;;;4.43;3.60;;;;;;;-148.56;100.00;61375.16;5011606;28;20083;-31
2021/08/14 15:27:53;;;;;;;5.22;3.42;;;;;;;-148.56;100.00;61375.16;5008768;28;20037;-31